Rheinfels — V2AI4 — position and weather

sailwx.info

Track history (hours):
 
Tides and Currents Weather Stations Pressure Air Temp Water Temp Dewpoint Dewpoint Depression Visibility Wind Speed Wind Dir Waves Ship Positions

Rheinfels

Last reported at 2015-Jan-26 04:07 UTC. Time now 2015-Jan-27 19:01 UTC.
Position N 39°06' W 009°48'.

Length 89 m; draft 5.6 m.

Type: Cargo ship. MMSI: 304010767.

Date/timePositionNaut miles runAvg speedWind from/ knotsBaromVisibWave heightAir tempDewpointWater temp
2015-Jan-26 04:07N 39°06' W 009°48'5 8.6
2015-Jan-26 03:29N 39°01' W 009°49'8 8.5
2015-Jan-26 02:32N 38°53' W 009°50'9 8.5
2015-Jan-26 01:32N 38°44' W 009°50'8 8.6
2015-Jan-26 00:33N 38°36' W 009°48'9 8.5
2015-Jan-25 23:33N 38°28' W 009°45'8 8.5
2015-Jan-25 22:33N 38°19' W 009°43'9 8.6
2015-Jan-25 21:33N 38°11' W 009°40'8 8.4
2015-Jan-25 20:33N 38°03' W 009°38'8 8.4
2015-Jan-25 19:33N 37°55' W 009°36'9 8.7
2015-Jan-25 18:33N 37°46' W 009°33'9 8.8
2015-Jan-25 17:33N 37°38' W 009°31'9 9.0
2015-Jan-25 16:34N 37°29' W 009°28'9 8.9
2015-Jan-25 15:33N 37°20' W 009°26'9 8.7
2015-Jan-25 14:34N 37°12' W 009°23'43 8.1
2015-Jan-25 09:17N 36°40' W 008°47'7 9.5
2015-Jan-25 08:33N 36°39' W 008°38'156 9.2
2015-Jan-24 15:31N 35°59' W 005°31'7 7.3
2015-Jan-24 14:33N 35°58' W 005°22'5 4.9
2015-Jan-24 13:32N 35°54' W 005°18'0 0.0
2015-Jan-24 12:32N 35°54' W 005°18'0 0.2
2015-Jan-24 11:33N 35°54' W 005°18'2 1.8
2015-Jan-24 10:32N 35°55' W 005°20'0 0.1
2015-Jan-24 09:32N 35°55' W 005°20'0 0.1
2015-Jan-24 08:32N 35°55' W 005°20'0 0.0
2015-Jan-24 07:32N 35°55' W 005°20'0 0.0
2015-Jan-24 06:32N 35°55' W 005°20'0 0.0
2015-Jan-24 05:32N 35°55' W 005°20'0 0.0
2015-Jan-24 04:32N 35°55' W 005°20'0 0.0
2015-Jan-24 03:32N 35°55' W 005°20'0 0.0
2015-Jan-24 02:32N 35°55' W 005°20'0 0.1
2015-Jan-24 01:32N 35°55' W 005°20'0 0.0
2015-Jan-24 00:32N 35°55' W 005°20'0 0.0
2015-Jan-23 23:32N 35°55' W 005°20'0 0.0
2015-Jan-23 22:32N 35°55' W 005°20'0 0.0
2015-Jan-23 21:32N 35°55' W 005°20'0 0.2
2015-Jan-23 20:32N 35°55' W 005°20'0 0.0
2015-Jan-23 19:32N 35°55' W 005°20'0 0.0
2015-Jan-23 18:32N 35°55' W 005°20'0 0.0
2015-Jan-23 17:32N 35°55' W 005°20'0 0.0
2015-Jan-23 16:32N 35°55' W 005°20'4 4.4
2015-Jan-23 15:34N 35°58' W 005°16'  
2015-Jan-19 02:14N 36°52' E 013°46'6 8.0
2015-Jan-19 01:26N 36°50' E 013°54'7 7.9
2015-Jan-19 00:33N 36°48' E 014°02'8 7.9
2015-Jan-18 23:33N 36°46' E 014°12'8 8.0
2015-Jan-18 22:34N 36°44' E 014°21'8 7.9
2015-Jan-18 21:33N 36°42' E 014°31'  
Track history (hours):
 
Tides and Currents Weather Stations Pressure Air Temp Water Temp Dewpoint Dewpoint Depression Visibility Wind Speed Wind Dir Waves Ship Positions

Rheinfels

Last reported at 2015-Jan-26 04:07 UTC. Time now 2015-Jan-27 19:01 UTC.
Position N 39°06' W 009°48'.

Length 89 m; draft 5.6 m.

Type: Cargo ship. MMSI: 304010767.

Date/timePositionNaut miles runAvg speedWind from/ knotsBaromVisibWave heightAir tempDewpointWater temp
2015-Jan-26 04:07N 39°06' W 009°48'5 8.6
2015-Jan-26 03:29N 39°01' W 009°49'8 8.5
2015-Jan-26 02:32N 38°53' W 009°50'9 8.5
2015-Jan-26 01:32N 38°44' W 009°50'8 8.6
2015-Jan-26 00:33N 38°36' W 009°48'9 8.5
2015-Jan-25 23:33N 38°28' W 009°45'8 8.5
2015-Jan-25 22:33N 38°19' W 009°43'9 8.6
2015-Jan-25 21:33N 38°11' W 009°40'8 8.4
2015-Jan-25 20:33N 38°03' W 009°38'8 8.4
2015-Jan-25 19:33N 37°55' W 009°36'9 8.7
2015-Jan-25 18:33N 37°46' W 009°33'9 8.8
2015-Jan-25 17:33N 37°38' W 009°31'9 9.0
2015-Jan-25 16:34N 37°29' W 009°28'9 8.9
2015-Jan-25 15:33N 37°20' W 009°26'9 8.7
2015-Jan-25 14:34N 37°12' W 009°23'43 8.1
2015-Jan-25 09:17N 36°40' W 008°47'7 9.5
2015-Jan-25 08:33N 36°39' W 008°38'156 9.2
2015-Jan-24 15:31N 35°59' W 005°31'7 7.3
2015-Jan-24 14:33N 35°58' W 005°22'5 4.9
2015-Jan-24 13:32N 35°54' W 005°18'0 0.0
2015-Jan-24 12:32N 35°54' W 005°18'0 0.2
2015-Jan-24 11:33N 35°54' W 005°18'2 1.8
2015-Jan-24 10:32N 35°55' W 005°20'0 0.1
2015-Jan-24 09:32N 35°55' W 005°20'0 0.1
2015-Jan-24 08:32N 35°55' W 005°20'0 0.0
2015-Jan-24 07:32N 35°55' W 005°20'0 0.0
2015-Jan-24 06:32N 35°55' W 005°20'0 0.0
2015-Jan-24 05:32N 35°55' W 005°20'0 0.0
2015-Jan-24 04:32N 35°55' W 005°20'0 0.0
2015-Jan-24 03:32N 35°55' W 005°20'0 0.0
2015-Jan-24 02:32N 35°55' W 005°20'0 0.1
2015-Jan-24 01:32N 35°55' W 005°20'0 0.0
2015-Jan-24 00:32N 35°55' W 005°20'0 0.0
2015-Jan-23 23:32N 35°55' W 005°20'0 0.0
2015-Jan-23 22:32N 35°55' W 005°20'0 0.0
2015-Jan-23 21:32N 35°55' W 005°20'0 0.2
2015-Jan-23 20:32N 35°55' W 005°20'0 0.0
2015-Jan-23 19:32N 35°55' W 005°20'0 0.0
2015-Jan-23 18:32N 35°55' W 005°20'0 0.0
2015-Jan-23 17:32N 35°55' W 005°20'0 0.0
2015-Jan-23 16:32N 35°55' W 005°20'4 4.4
2015-Jan-23 15:34N 35°58' W 005°16'  
2015-Jan-19 02:14N 36°52' E 013°46'6 8.0
2015-Jan-19 01:26N 36°50' E 013°54'7 7.9
2015-Jan-19 00:33N 36°48' E 014°02'8 7.9
2015-Jan-18 23:33N 36°46' E 014°12'8 8.0
2015-Jan-18 22:34N 36°44' E 014°21'8 7.9
2015-Jan-18 21:33N 36°42' E 014°31'  

Dump ship's entire track history